Portada
METAR-TAF:

METAR-TAF

Aeroports :

Jerez de la Frontera, Espanya

latitud: 36-45N, longitud: 006-04W, altitud: 27 m

Observació

L'informe es va fer fa 16 minuts, a les 21:00 UTC
Vent 5 kt del Oest, variant entre Sud-Oest i Nord/Nord-Oest
Temperatura 11°C
Humitat 82%
Pressió 1021 hPa
Visibilitat 10 km o més
Escasses núvols a una alçada de 5500 ft

METAR: LEJR 222100Z 28005KT 230V330 9999 FEW055 11/08 Q1021

Hora: 22:16 (21:16 UTC)

Pronòstic

L'informe es va fer fa 4 hores i 16 minuts, a les 17:00 UTC
Pronòstic vàlid del 22 a les 18 UTC al 23 a les 18 UTC
Vent 9 kt del Oest/Nord-Oest
Visibilitat 10 km o més
Núvols disperses a una alçada de 3000 ft
Probabilitat 30% :
Temporalment
l' 23 a les 12 UTC al 23 a les 16 UTC
Vent 15 kt del Oest/Nord-Oest amb ràfegues de 25 kt

TAF: LEJR 221700Z 2218/2318 30009KT 9999 SCT030 TX16/2315Z TN05/2308Z PROB30 TEMPO 2312/2316 30015G25KT

Observacions i pronòstics meteorològics de més de 4000 aeroports (METAR i TAF).

Les estacions disponibles són els punts grocs i vermells al mapa.

Posi el ratolí al punt desitjat per veure el nom de l'estació.

Feu clic per veure les observacions i els pronòstics meteorològics.

Per canviar el mapa: feu clic els botons verds amb una creu de color negre per apropar; al botó verd amb un guió per allunyar la imatge; o en les fletxes verdes per a mapes adjacents.


METAR-TAF: